sensor_id;sensor_type;location;lat;lon;timestamp;pressure;altitude;pressure_sealevel;temperature;humidity
34482;BME280;20720;48.886;9.388;2023-05-11T00:02:06;98157.19;;;16.41;100.00
34482;BME280;20720;48.886;9.388;2023-05-11T00:04:32;98164.81;;;16.38;100.00
34482;BME280;20720;48.886;9.388;2023-05-11T00:06:57;98164.16;;;16.31;100.00
34482;BME280;20720;48.886;9.388;2023-05-11T00:09:22;98167.22;;;16.39;100.00
34482;BME280;20720;48.886;9.388;2023-05-11T00:11:47;98161.13;;;16.39;100.00
34482;BME280;20720;48.886;9.388;2023-05-11T00:14:13;98161.84;;;16.34;100.00
34482;BME280;20720;48.886;9.388;2023-05-11T00:16:38;98160.94;;;16.29;100.00
34482;BME280;20720;48.886;9.388;2023-05-11T00:19:03;98152.75;;;16.30;100.00
34482;BME280;20720;48.886;9.388;2023-05-11T00:21:28;98160.78;;;16.35;100.00
34482;BME280;20720;48.886;9.388;2023-05-11T00:23:54;98154.63;;;16.01;100.00
34482;BME280;20720;48.886;9.388;2023-05-11T00:26:19;98157.97;;;16.09;100.00
34482;BME280;20720;48.886;9.388;2023-05-11T00:28:45;98151.00;;;16.36;100.00
34482;BME280;20720;48.886;9.388;2023-05-11T00:31:10;98157.44;;;16.40;100.00
34482;BME280;20720;48.886;9.388;2023-05-11T00:33:36;98151.28;;;16.23;100.00
34482;BME280;20720;48.886;9.388;2023-05-11T00:36:02;98150.16;;;16.19;100.00
34482;BME280;20720;48.886;9.388;2023-05-11T00:38:27;98154.03;;;16.28;100.00
34482;BME280;20720;48.886;9.388;2023-05-11T00:40:52;98147.13;;;16.27;100.00
34482;BME280;20720;48.886;9.388;2023-05-11T00:43:18;98151.56;;;15.93;100.00
34482;BME280;20720;48.886;9.388;2023-05-11T00:45:43;98147.63;;;15.67;100.00
34482;BME280;20720;48.886;9.388;2023-05-11T00:48:12;98140.69;;;15.78;100.00
34482;BME280;20720;48.886;9.388;2023-05-11T00:50:38;98146.09;;;15.99;100.00
34482;BME280;20720;48.886;9.388;2023-05-11T00:53:03;98147.75;;;16.17;100.00
34482;BME280;20720;48.886;9.388;2023-05-11T00:55:29;98151.69;;;15.86;100.00
34482;BME280;20720;48.886;9.388;2023-05-11T00:57:54;98142.25;;;15.90;100.00
34482;BME280;20720;48.886;9.388;2023-05-11T01:00:19;98145.88;;;15.73;100.00
34482;BME280;20720;48.886;9.388;2023-05-11T01:02:46;98141.94;;;16.03;100.00
34482;BME280;20720;48.886;9.388;2023-05-11T01:05:11;98148.19;;;15.97;100.00
34482;BME280;20720;48.886;9.388;2023-05-11T01:07:53;98142.72;;;15.87;100.00
34482;BME280;20720;48.886;9.388;2023-05-11T01:10:33;98148.75;;;15.71;100.00
34482;BME280;20720;48.886;9.388;2023-05-11T01:13:25;98151.94;;;15.57;100.00
34482;BME280;20720;48.886;9.388;2023-05-11T01:15:54;98150.38;;;15.72;100.00
34482;BME280;20720;48.886;9.388;2023-05-11T01:19:26;98144.94;;;15.28;100.00
34482;BME280;20720;48.886;9.388;2023-05-11T01:21:17;98148.06;;;15.76;100.00
34482;BME280;20720;48.886;9.388;2023-05-11T01:30:11;98142.31;;;15.95;100.00
34482;BME280;20720;48.886;9.388;2023-05-11T01:32:39;98145.00;;;15.56;100.00
34482;BME280;20720;48.886;9.388;2023-05-11T01:35:26;98150.13;;;15.46;100.00
34482;BME280;20720;48.886;9.388;2023-05-11T01:37:56;98134.81;;;15.25;100.00
34482;BME280;20720;48.886;9.388;2023-05-11T01:40:27;98140.19;;;15.53;100.00
34482;BME280;20720;48.886;9.388;2023-05-11T01:43:01;98136.28;;;15.83;100.00
34482;BME280;20720;48.886;9.388;2023-05-11T01:45:30;98141.09;;;15.86;100.00
34482;BME280;20720;48.886;9.388;2023-05-11T01:47:59;98143.91;;;15.80;100.00
34482;BME280;20720;48.886;9.388;2023-05-11T01:50:26;98137.94;;;15.73;100.00
34482;BME280;20720;48.886;9.388;2023-05-11T01:52:52;98141.59;;;15.83;100.00
34482;BME280;20720;48.886;9.388;2023-05-11T01:55:20;98142.16;;;15.85;100.00
34482;BME280;20720;48.886;9.388;2023-05-11T01:57:47;98138.81;;;15.78;100.00
34482;BME280;20720;48.886;9.388;2023-05-11T02:00:16;98144.00;;;15.45;100.00
34482;BME280;20720;48.886;9.388;2023-05-11T02:02:43;98141.75;;;15.65;100.00
34482;BME280;20720;48.886;9.388;2023-05-11T02:05:14;98137.31;;;15.82;100.00
34482;BME280;20720;48.886;9.388;2023-05-11T02:07:43;98142.53;;;15.77;100.00
34482;BME280;20720;48.886;9.388;2023-05-11T02:10:09;98139.44;;;15.18;100.00
34482;BME280;20720;48.886;9.388;2023-05-11T02:12:37;98134.81;;;15.36;100.00
34482;BME280;20720;48.886;9.388;2023-05-11T02:15:04;98133.19;;;15.35;100.00
34482;BME280;20720;48.886;9.388;2023-05-11T02:17:31;98145.06;;;15.44;100.00
34482;BME280;20720;48.886;9.388;2023-05-11T02:19:59;98142.44;;;15.72;100.00
34482;BME280;20720;48.886;9.388;2023-05-11T02:22:26;98148.16;;;15.81;100.00
34482;BME280;20720;48.886;9.388;2023-05-11T02:24:52;98157.00;;;15.86;100.00
34482;BME280;20720;48.886;9.388;2023-05-11T02:27:17;98152.75;;;15.57;100.00
34482;BME280;20720;48.886;9.388;2023-05-11T02:29:43;98146.44;;;15.75;100.00
34482;BME280;20720;48.886;9.388;2023-05-11T02:32:12;98144.59;;;15.75;100.00
34482;BME280;20720;48.886;9.388;2023-05-11T02:34:41;98141.72;;;15.77;100.00
34482;BME280;20720;48.886;9.388;2023-05-11T02:37:12;98146.97;;;15.60;100.00
34482;BME280;20720;48.886;9.388;2023-05-11T02:39:41;98144.28;;;15.72;100.00
34482;BME280;20720;48.886;9.388;2023-05-11T02:42:17;98147.34;;;15.80;100.00
34482;BME280;20720;48.886;9.388;2023-05-11T02:44:52;98143.66;;;15.53;100.00
34482;BME280;20720;48.886;9.388;2023-05-11T02:47:20;98142.88;;;15.41;100.00
34482;BME280;20720;48.886;9.388;2023-05-11T02:49:48;98138.81;;;15.50;100.00
34482;BME280;20720;48.886;9.388;2023-05-11T02:52:19;98137.88;;;15.84;100.00
34482;BME280;20720;48.886;9.388;2023-05-11T02:54:46;98141.75;;;15.65;100.00
34482;BME280;20720;48.886;9.388;2023-05-11T02:57:12;98136.84;;;15.57;100.00
34482;BME280;20720;48.886;9.388;2023-05-11T02:59:38;98131.13;;;15.77;100.00
34482;BME280;20720;48.886;9.388;2023-05-11T03:02:04;98131.06;;;15.60;100.00
34482;BME280;20720;48.886;9.388;2023-05-11T03:04:30;98132.19;;;15.25;100.00
34482;BME280;20720;48.886;9.388;2023-05-11T03:06:55;98126.81;;;15.08;100.00
34482;BME280;20720;48.886;9.388;2023-05-11T03:09:20;98120.63;;;14.79;100.00
34482;BME280;20720;48.886;9.388;2023-05-11T03:11:46;98122.28;;;15.20;100.00
34482;BME280;20720;48.886;9.388;2023-05-11T03:14:11;98119.34;;;15.56;100.00
34482;BME280;20720;48.886;9.388;2023-05-11T03:16:37;98125.03;;;15.76;100.00
34482;BME280;20720;48.886;9.388;2023-05-11T03:19:05;98127.78;;;15.81;100.00
34482;BME280;20720;48.886;9.388;2023-05-11T03:21:31;98127.72;;;15.65;100.00
34482;BME280;20720;48.886;9.388;2023-05-11T03:23:58;98135.22;;;15.56;100.00
34482;BME280;20720;48.886;9.388;2023-05-11T03:26:26;98131.00;;;15.83;100.00
34482;BME280;20720;48.886;9.388;2023-05-11T03:28:52;98125.38;;;15.80;100.00
34482;BME280;20720;48.886;9.388;2023-05-11T03:31:19;98135.06;;;15.23;100.00
34482;BME280;20720;48.886;9.388;2023-05-11T03:33:44;98126.44;;;15.67;100.00
34482;BME280;20720;48.886;9.388;2023-05-11T03:36:10;98124.78;;;15.78;100.00
34482;BME280;20720;48.886;9.388;2023-05-11T03:38:37;98122.94;;;15.78;100.00
34482;BME280;20720;48.886;9.388;2023-05-11T03:41:03;98131.00;;;15.83;100.00
34482;BME280;20720;48.886;9.388;2023-05-11T03:43:30;98124.28;;;15.64;100.00
34482;BME280;20720;48.886;9.388;2023-05-11T03:45:56;98126.72;;;15.54;100.00
34482;BME280;20720;48.886;9.388;2023-05-11T03:48:23;98129.00;;;15.62;100.00
34482;BME280;20720;48.886;9.388;2023-05-11T03:50:48;98127.03;;;15.58;100.00
34482;BME280;20720;48.886;9.388;2023-05-11T03:53:15;98119.88;;;15.19;100.00
34482;BME280;20720;48.886;9.388;2023-05-11T03:55:40;98122.22;;;14.92;100.00
34482;BME280;20720;48.886;9.388;2023-05-11T03:58:09;98111.75;;;14.51;100.00
34482;BME280;20720;48.886;9.388;2023-05-11T04:00:39;98109.88;;;14.97;100.00
34482;BME280;20720;48.886;9.388;2023-05-11T04:03:05;98118.41;;;14.88;100.00
34482;BME280;20720;48.886;9.388;2023-05-11T04:05:33;98120.81;;;15.01;100.00
34482;BME280;20720;48.886;9.388;2023-05-11T04:07:58;98112.25;;;15.22;100.00
34482;BME280;20720;48.886;9.388;2023-05-11T04:10:24;98122.47;;;15.53;100.00
34482;BME280;20720;48.886;9.388;2023-05-11T04:12:50;98111.47;;;15.61;100.00
34482;BME280;20720;48.886;9.388;2023-05-11T04:15:17;98117.78;;;15.32;100.00
34482;BME280;20720;48.886;9.388;2023-05-11T04:17:42;98121.41;;;15.82;100.00
34482;BME280;20720;48.886;9.388;2023-05-11T04:20:07;98123.78;;;15.95;100.00
34482;BME280;20720;48.886;9.388;2023-05-11T04:22:33;98119.09;;;15.86;100.00
34482;BME280;20720;48.886;9.388;2023-05-11T04:24:58;98124.31;;;15.81;100.00
34482;BME280;20720;48.886;9.388;2023-05-11T04:27:23;98129.81;;;15.91;100.00
34482;BME280;20720;48.886;9.388;2023-05-11T04:29:48;98121.22;;;16.00;100.00
34482;BME280;20720;48.886;9.388;2023-05-11T04:32:14;98118.66;;;16.06;100.00
34482;BME280;20720;48.886;9.388;2023-05-11T04:34:40;98117.50;;;15.85;100.00
34482;BME280;20720;48.886;9.388;2023-05-11T04:37:06;98122.53;;;16.15;100.00
34482;BME280;20720;48.886;9.388;2023-05-11T04:39:34;98122.59;;;16.03;100.00
34482;BME280;20720;48.886;9.388;2023-05-11T04:42:00;98117.78;;;16.17;100.00
34482;BME280;20720;48.886;9.388;2023-05-11T04:44:26;98120.44;;;16.17;100.00
34482;BME280;20720;48.886;9.388;2023-05-11T04:46:55;98116.03;;;16.22;100.00
34482;BME280;20720;48.886;9.388;2023-05-11T04:49:20;98117.41;;;16.25;100.00
34482;BME280;20720;48.886;9.388;2023-05-11T04:51:46;98121.25;;;16.34;100.00
34482;BME280;20720;48.886;9.388;2023-05-11T04:54:11;98118.53;;;16.29;100.00
34482;BME280;20720;48.886;9.388;2023-05-11T04:56:36;98121.25;;;16.34;100.00
34482;BME280;20720;48.886;9.388;2023-05-11T04:59:08;98130.59;;;15.63;100.00
34482;BME280;20720;48.886;9.388;2023-05-11T05:01:33;98126.63;;;15.77;100.00
34482;BME280;20720;48.886;9.388;2023-05-11T05:03:58;98131.28;;;15.70;100.00
34482;BME280;20720;48.886;9.388;2023-05-11T05:06:24;98129.00;;;15.62;100.00
34482;BME280;20720;48.886;9.388;2023-05-11T05:08:49;98130.66;;;16.25;100.00
34482;BME280;20720;48.886;9.388;2023-05-11T05:11:14;98129.72;;;16.64;100.00
34482;BME280;20720;48.886;9.388;2023-05-11T05:13:40;98134.06;;;16.70;100.00
34482;BME280;20720;48.886;9.388;2023-05-11T05:16:05;98143.66;;;16.71;100.00
34482;BME280;20720;48.886;9.388;2023-05-11T05:18:31;98139.53;;;16.80;100.00
34482;BME280;20720;48.886;9.388;2023-05-11T05:20:56;98136.56;;;16.60;100.00
34482;BME280;20720;48.886;9.388;2023-05-11T05:23:21;98141.25;;;15.80;100.00
34482;BME280;20720;48.886;9.388;2023-05-11T05:25:46;98152.91;;;15.04;100.00
34482;BME280;20720;48.886;9.388;2023-05-11T05:28:12;98149.00;;;14.84;100.00
34482;BME280;20720;48.886;9.388;2023-05-11T05:30:37;98155.66;;;15.33;100.00
34482;BME280;20720;48.886;9.388;2023-05-11T05:33:02;98148.81;;;15.60;100.00
34482;BME280;20720;48.886;9.388;2023-05-11T05:35:27;98150.38;;;15.09;100.00
34482;BME280;20720;48.886;9.388;2023-05-11T05:37:53;98157.16;;;15.17;100.00
34482;BME280;20720;48.886;9.388;2023-05-11T05:40:18;98154.75;;;15.16;100.00
34482;BME280;20720;48.886;9.388;2023-05-11T05:42:43;98153.81;;;16.01;100.00
34482;BME280;20720;48.886;9.388;2023-05-11T05:45:09;98154.13;;;16.16;100.00
34482;BME280;20720;48.886;9.388;2023-05-11T05:47:34;98152.16;;;16.56;100.00
34482;BME280;20720;48.886;9.388;2023-05-11T05:50:00;98160.47;;;16.98;100.00
34482;BME280;20720;48.886;9.388;2023-05-11T05:52:25;98160.44;;;17.31;100.00
34482;BME280;20720;48.886;9.388;2023-05-11T05:54:50;98158.84;;;17.52;100.00
34482;BME280;20720;48.886;9.388;2023-05-11T05:57:15;98169.88;;;17.44;100.00
34482;BME280;20720;48.886;9.388;2023-05-11T05:59:41;98166.22;;;17.28;100.00
34482;BME280;20720;48.886;9.388;2023-05-11T06:02:07;98170.41;;;16.53;100.00
34482;BME280;20720;48.886;9.388;2023-05-11T06:04:32;98168.03;;;16.40;100.00
34482;BME280;20720;48.886;9.388;2023-05-11T06:06:57;98162.16;;;17.04;100.00
34482;BME280;20720;48.886;9.388;2023-05-11T06:09:24;98168.75;;;17.18;100.00
34482;BME280;20720;48.886;9.388;2023-05-11T06:11:49;98177.84;;;17.06;100.00
34482;BME280;20720;48.886;9.388;2023-05-11T06:14:14;98169.53;;;16.80;100.00
34482;BME280;20720;48.886;9.388;2023-05-11T06:16:40;98172.72;;;16.99;100.00
34482;BME280;20720;48.886;9.388;2023-05-11T06:19:06;98172.22;;;17.40;100.00
34482;BME280;20720;48.886;9.388;2023-05-11T06:21:32;98169.41;;;17.90;100.00
34482;BME280;20720;48.886;9.388;2023-05-11T06:23:57;98166.88;;;17.78;100.00
34482;BME280;20720;48.886;9.388;2023-05-11T06:26:22;98176.41;;;17.74;100.00
34482;BME280;20720;48.886;9.388;2023-05-11T06:28:49;98172.84;;;17.47;100.00
34482;BME280;20720;48.886;9.388;2023-05-11T06:31:14;98171.94;;;18.02;100.00
34482;BME280;20720;48.886;9.388;2023-05-11T06:33:40;98169.53;;;17.57;100.00
34482;BME280;20720;48.886;9.388;2023-05-11T06:36:05;98173.31;;;17.61;100.00
34482;BME280;20720;48.886;9.388;2023-05-11T06:38:31;98178.47;;;17.29;100.00
34482;BME280;20720;48.886;9.388;2023-05-11T06:40:56;98172.97;;;17.79;100.00
34482;BME280;20720;48.886;9.388;2023-05-11T06:43:22;98174.28;;;17.17;100.00
34482;BME280;20720;48.886;9.388;2023-05-11T06:45:47;98173.69;;;17.69;100.00
34482;BME280;20720;48.886;9.388;2023-05-11T06:48:13;98175.91;;;17.18;100.00
34482;BME280;20720;48.886;9.388;2023-05-11T06:50:38;98175.50;;;17.47;100.00
34482;BME280;20720;48.886;9.388;2023-05-11T06:53:03;98170.78;;;17.71;100.00
34482;BME280;20720;48.886;9.388;2023-05-11T06:55:29;98170.09;;;17.80;100.00
34482;BME280;20720;48.886;9.388;2023-05-11T06:57:54;98173.06;;;17.62;100.00
34482;BME280;20720;48.886;9.388;2023-05-11T07:00:19;98170.66;;;17.82;100.00
34482;BME280;20720;48.886;9.388;2023-05-11T07:02:45;98167.56;;;17.69;100.00
34482;BME280;20720;48.886;9.388;2023-05-11T07:05:10;98170.09;;;17.80;100.00
34482;BME280;20720;48.886;9.388;2023-05-11T07:07:37;98169.47;;;17.73;100.00
34482;BME280;20720;48.886;9.388;2023-05-11T07:10:02;98176.84;;;17.28;100.00
34482;BME280;20720;48.886;9.388;2023-05-11T07:12:27;98179.81;;;17.32;100.00
34482;BME280;20720;48.886;9.388;2023-05-11T07:14:53;98173.44;;;17.71;100.00
34482;BME280;20720;48.886;9.388;2023-05-11T07:17:18;98178.72;;;17.93;100.00
34482;BME280;20720;48.886;9.388;2023-05-11T07:19:43;98176.69;;;18.00;100.00
34482;BME280;20720;48.886;9.388;2023-05-11T07:22:09;98178.72;;;17.93;100.00
34482;BME280;20720;48.886;9.388;2023-05-11T07:24:34;98178.66;;;18.09;100.00
34482;BME280;20720;48.886;9.388;2023-05-11T07:27:00;98182.09;;;18.10;100.00
34482;BME280;20720;48.886;9.388;2023-05-11T07:29:26;98183.56;;;17.96;100.00
34482;BME280;20720;48.886;9.388;2023-05-11T07:31:51;98182.94;;;17.88;100.00
34482;BME280;20720;48.886;9.388;2023-05-11T07:34:17;98180.44;;;18.04;100.00
34482;BME280;20720;48.886;9.388;2023-05-11T07:36:42;98179.69;;;18.61;100.00
34482;BME280;20720;48.886;9.388;2023-05-11T07:39:07;98182.34;;;18.35;100.00
34482;BME280;20720;48.886;9.388;2023-05-11T07:41:33;98180.75;;;18.34;100.00
34482;BME280;20720;48.886;9.388;2023-05-11T07:43:59;98183.47;;;18.39;100.00
34482;BME280;20720;48.886;9.388;2023-05-11T07:46:24;98182.22;;;18.20;100.00
34482;BME280;20720;48.886;9.388;2023-05-11T07:48:50;98180.97;;;18.54;100.00
34482;BME280;20720;48.886;9.388;2023-05-11T07:51:15;98183.94;;;18.62;100.00
34482;BME280;20720;48.886;9.388;2023-05-11T07:53:40;98184.00;;;18.67;100.00
34482;BME280;20720;48.886;9.388;2023-05-11T07:56:06;98185.47;;;18.53;100.00
34482;BME280;20720;48.886;9.388;2023-05-11T07:58:31;98181.94;;;19.11;100.00
34482;BME280;20720;48.886;9.388;2023-05-11T08:00:57;98189.63;;;18.71;100.00
34482;BME280;20720;48.886;9.388;2023-05-11T08:03:22;98182.25;;;18.83;100.00
34482;BME280;20720;48.886;9.388;2023-05-11T08:05:47;98181.19;;;18.84;100.00
34482;BME280;20720;48.886;9.388;2023-05-11T08:08:13;98175.28;;;18.77;100.00
34482;BME280;20720;48.886;9.388;2023-05-11T08:10:38;98182.28;;;18.88;100.00
34482;BME280;20720;48.886;9.388;2023-05-11T08:13:04;98182.97;;;19.10;100.00
34482;BME280;20720;48.886;9.388;2023-05-11T08:15:29;98180.31;;;19.10;100.00
34482;BME280;20720;48.886;9.388;2023-05-11T08:17:54;98190.59;;;18.60;100.00
34482;BME280;20720;48.886;9.388;2023-05-11T08:20:20;98182.88;;;18.95;100.00
34482;BME280;20720;48.886;9.388;2023-05-11T08:22:45;98183.16;;;18.62;100.00
34482;BME280;20720;48.886;9.388;2023-05-11T08:25:11;98185.72;;;19.20;100.00
34482;BME280;20720;48.886;9.388;2023-05-11T08:27:36;98180.44;;;18.89;100.00
34482;BME280;20720;48.886;9.388;2023-05-11T08:30:02;98187.75;;;19.08;100.00
34482;BME280;20720;48.886;9.388;2023-05-11T08:32:27;98189.38;;;18.77;100.00
34482;BME280;20720;48.886;9.388;2023-05-11T08:34:53;98187.88;;;19.28;100.00
34482;BME280;20720;48.886;9.388;2023-05-11T08:37:18;98186.66;;;19.41;100.00
34482;BME280;20720;48.886;9.388;2023-05-11T08:39:44;98184.78;;;19.00;100.00
34482;BME280;20720;48.886;9.388;2023-05-11T08:42:09;98185.63;;;19.10;100.00
34482;BME280;20720;48.886;9.388;2023-05-11T08:44:34;98183.44;;;19.02;100.00
34482;BME280;20720;48.886;9.388;2023-05-11T08:47:02;98191.28;;;19.65;100.00
34482;BME280;20720;48.886;9.388;2023-05-11T08:49:29;98190.97;;;19.10;100.00
34482;BME280;20720;48.886;9.388;2023-05-11T08:51:55;98194.31;;;19.32;100.00
34482;BME280;20720;48.886;9.388;2023-05-11T08:54:20;98186.91;;;19.39;100.00
34482;BME280;20720;48.886;9.388;2023-05-11T08:56:46;98185.63;;;19.05;100.00
34482;BME280;20720;48.886;9.388;2023-05-11T08:59:12;98195.47;;;19.46;100.00
34482;BME280;20720;48.886;9.388;2023-05-11T09:01:39;98188.78;;;20.06;100.00
34482;BME280;20720;48.886;9.388;2023-05-11T09:04:06;98195.94;;;19.33;100.00
34482;BME280;20720;48.886;9.388;2023-05-11T09:06:32;98198.03;;;19.31;100.00
34482;BME280;20720;48.886;9.388;2023-05-11T09:08:58;98195.19;;;19.43;100.00
34482;BME280;20720;48.886;9.388;2023-05-11T09:11:24;98197.31;;;19.04;100.00
34482;BME280;20720;48.886;9.388;2023-05-11T09:13:50;98193.41;;;18.80;100.00
34482;BME280;20720;48.886;9.388;2023-05-11T09:16:15;98193.91;;;19.55;100.00
34482;BME280;20720;48.886;9.388;2023-05-11T09:18:51;98196.22;;;19.99;100.00
34482;BME280;20720;48.886;9.388;2023-05-11T09:21:16;98198.31;;;19.92;100.00
34482;BME280;20720;48.886;9.388;2023-05-11T09:23:42;98191.94;;;19.98;100.00
34482;BME280;20720;48.886;9.388;2023-05-11T09:26:15;98197.22;;;19.78;100.00
34482;BME280;20720;48.886;9.388;2023-05-11T09:28:52;98202.44;;;20.24;100.00
34482;BME280;20720;48.886;9.388;2023-05-11T09:36:38;98204.88;;;17.57;100.00
34482;BME280;20720;48.886;9.388;2023-05-11T09:39:04;98185.84;;;18.67;100.00
34482;BME280;20720;48.886;9.388;2023-05-11T09:41:30;98198.56;;;18.07;100.00
34482;BME280;20720;48.886;9.388;2023-05-11T09:44:09;98189.81;;;18.96;100.00
34482;BME280;20720;48.886;9.388;2023-05-11T09:46:42;98190.47;;;18.45;100.00
34482;BME280;20720;48.886;9.388;2023-05-11T09:49:08;98186.03;;;18.55;100.00
34482;BME280;20720;48.886;9.388;2023-05-11T09:51:36;98186.00;;;19.24;100.00
34482;BME280;20720;48.886;9.388;2023-05-11T09:54:16;98189.78;;;19.90;100.00
34482;BME280;20720;48.886;9.388;2023-05-11T09:56:52;98194.94;;;20.11;100.00
34482;BME280;20720;48.886;9.388;2023-05-11T09:59:40;98200.38;;;19.69;100.00
34482;BME280;20720;48.886;9.388;2023-05-11T10:02:21;98187.97;;;19.38;100.00
34482;BME280;20720;48.886;9.388;2023-05-11T10:04:49;98187.50;;;19.51;100.00
34482;BME280;20720;48.886;9.388;2023-05-11T10:07:34;98193.88;;;20.17;100.00
34482;BME280;20720;48.886;9.388;2023-05-11T10:10:01;98190.69;;;20.25;100.00
34482;BME280;20720;48.886;9.388;2023-05-11T10:12:28;98198.44;;;20.22;98.66
34482;BME280;20720;48.886;9.388;2023-05-11T10:15:00;98192.44;;;19.85;100.00
34482;BME280;20720;48.886;9.388;2023-05-11T10:17:25;98193.34;;;19.43;100.00
34482;BME280;20720;48.886;9.388;2023-05-11T10:19:54;98188.13;;;19.74;100.00
34482;BME280;20720;48.886;9.388;2023-05-11T10:22:21;98185.50;;;19.84;100.00
34482;BME280;20720;48.886;9.388;2023-05-11T10:24:49;98198.56;;;19.28;100.00
34482;BME280;20720;48.886;9.388;2023-05-11T10:27:14;98189.31;;;19.41;100.00
34482;BME280;20720;48.886;9.388;2023-05-11T10:29:41;98188.84;;;19.49;100.00
34482;BME280;20720;48.886;9.388;2023-05-11T10:32:06;98189.94;;;19.16;100.00
34482;BME280;20720;48.886;9.388;2023-05-11T10:34:32;98182.75;;;19.58;100.00
34482;BME280;20720;48.886;9.388;2023-05-11T10:36:59;98182.41;;;19.45;100.00
34482;BME280;20720;48.886;9.388;2023-05-11T10:39:25;98182.78;;;19.27;100.00
34482;BME280;20720;48.886;9.388;2023-05-11T10:47:51;98187.69;;;20.02;100.00
34482;BME280;20720;48.886;9.388;2023-05-11T10:53:18;98180.97;;;18.54;100.00
34482;BME280;20720;48.886;9.388;2023-05-11T10:58:47;98179.28;;;18.43;100.00
34482;BME280;20720;48.886;9.388;2023-05-11T11:01:27;98175.72;;;18.37;100.00
34482;BME280;20720;48.886;9.388;2023-05-11T11:03:56;98174.56;;;18.87;100.00
34482;BME280;20720;48.886;9.388;2023-05-11T11:06:22;98180.63;;;19.60;100.00
34482;BME280;20720;48.886;9.388;2023-05-11T11:08:54;98168.28;;;19.44;100.00
34482;BME280;20720;48.886;9.388;2023-05-11T11:11:31;98174.41;;;20.17;99.64
34482;BME280;20720;48.886;9.388;2023-05-11T11:13:58;98173.47;;;19.76;100.00
34482;BME280;20720;48.886;9.388;2023-05-11T11:16:26;98175.25;;;19.50;100.00
34482;BME280;20720;48.886;9.388;2023-05-11T11:19:34;98176.59;;;19.58;100.00
34482;BME280;20720;48.886;9.388;2023-05-11T11:22:00;98171.97;;;19.38;100.00
34482;BME280;20720;48.886;9.388;2023-05-11T11:27:07;98182.31;;;19.92;97.17
34482;BME280;20720;48.886;9.388;2023-05-11T11:29:33;98176.50;;;20.00;93.37
34482;BME280;20720;48.886;9.388;2023-05-11T11:34:44;98181.31;;;20.08;89.63
34482;BME280;20720;48.886;9.388;2023-05-11T11:37:10;98170.41;;;20.19;93.25
34482;BME280;20720;48.886;9.388;2023-05-11T11:42:10;98176.75;;;19.98;96.72
34482;BME280;20720;48.886;9.388;2023-05-11T11:44:36;98177.81;;;19.92;100.00
34482;BME280;20720;48.886;9.388;2023-05-11T11:47:22;98177.66;;;20.39;95.21
34482;BME280;20720;48.886;9.388;2023-05-11T11:49:49;98172.22;;;20.04;95.90
34482;BME280;20720;48.886;9.388;2023-05-11T11:54:52;98172.84;;;20.26;90.36
34482;BME280;20720;48.886;9.388;2023-05-11T11:59:59;98171.13;;;19.90;97.48
34482;BME280;20720;48.886;9.388;2023-05-11T12:02:26;98178.81;;;18.24;100.00
34482;BME280;20720;48.886;9.388;2023-05-11T12:05:12;98174.59;;;18.92;100.00
34482;BME280;20720;48.886;9.388;2023-05-11T12:07:45;98177.06;;;18.13;100.00
34482;BME280;20720;48.886;9.388;2023-05-11T12:10:12;98171.22;;;19.48;100.00
34482;BME280;20720;48.886;9.388;2023-05-11T12:12:38;98170.09;;;18.92;100.00
34482;BME280;20720;48.886;9.388;2023-05-11T12:15:04;98164.78;;;20.16;100.00
34482;BME280;20720;48.886;9.388;2023-05-11T12:17:31;98166.72;;;20.45;100.00
34482;BME280;20720;48.886;9.388;2023-05-11T12:20:12;98156.81;;;20.26;100.00
34482;BME280;20720;48.886;9.388;2023-05-11T12:22:38;98160.03;;;20.78;100.00
34482;BME280;20720;48.886;9.388;2023-05-11T12:25:06;98162.72;;;20.73;95.44
34482;BME280;20720;48.886;9.388;2023-05-11T12:27:32;98162.72;;;20.63;99.68
34482;BME280;20720;48.886;9.388;2023-05-11T12:29:57;98157.91;;;20.75;98.87
34482;BME280;20720;48.886;9.388;2023-05-11T12:32:25;98167.25;;;20.42;100.00
34482;BME280;20720;48.886;9.388;2023-05-11T12:35:01;98161.88;;;21.23;92.46
34482;BME280;20720;48.886;9.388;2023-05-11T12:37:31;98158.97;;;20.94;92.29
34482;BME280;20720;48.886;9.388;2023-05-11T12:39:57;98160.56;;;20.90;94.08
34482;BME280;20720;48.886;9.388;2023-05-11T12:42:23;98161.06;;;21.32;90.19
34482;BME280;20720;48.886;9.388;2023-05-11T12:44:49;98157.28;;;21.33;92.72
34482;BME280;20720;48.886;9.388;2023-05-11T12:47:15;98156.44;;;22.07;85.13
34482;BME280;20720;48.886;9.388;2023-05-11T12:49:41;98157.50;;;22.50;80.13
34482;BME280;20720;48.886;9.388;2023-05-11T12:52:08;98158.75;;;19.58;87.02
34482;BME280;20720;48.886;9.388;2023-05-11T12:54:38;98150.28;;;21.52;85.79
34482;BME280;20720;48.886;9.388;2023-05-11T12:57:06;98143.66;;;22.42;79.37
34482;BME280;20720;48.886;9.388;2023-05-11T12:59:39;98146.41;;;22.66;80.87
34482;BME280;20720;48.886;9.388;2023-05-11T13:04:37;98140.81;;;22.24;70.74
34482;BME280;20720;48.886;9.388;2023-05-11T13:07:03;98137.56;;;22.99;75.39
34482;BME280;20720;48.886;9.388;2023-05-11T13:09:29;98137.03;;;21.86;76.88
34482;BME280;20720;48.886;9.388;2023-05-11T13:12:16;98142.78;;;23.09;74.18
34482;BME280;20720;48.886;9.388;2023-05-11T13:14:44;98143.59;;;22.81;73.13
34482;BME280;20720;48.886;9.388;2023-05-11T13:17:09;98144.34;;;22.53;74.28
34482;BME280;20720;48.886;9.388;2023-05-11T13:19:35;98133.69;;;23.10;68.88
34482;BME280;20720;48.886;9.388;2023-05-11T13:22:02;98138.25;;;23.81;67.99
34482;BME280;20720;48.886;9.388;2023-05-11T13:24:27;98134.06;;;24.12;65.53
34482;BME280;20720;48.886;9.388;2023-05-11T13:26:53;98131.47;;;20.33;73.60
34482;BME280;20720;48.886;9.388;2023-05-11T13:29:19;98119.97;;;20.13;89.39
34482;BME280;20720;48.886;9.388;2023-05-11T13:31:47;98109.66;;;23.00;76.31